createdAt,value
2023-04-12T00:00:18.090Z,0.6462
2023-04-12T00:01:19.481Z,0.7538
2023-04-12T00:02:22.011Z,0.7385
2023-04-12T00:03:22.579Z,0.8846
2023-04-12T00:04:23.908Z,0.7538
2023-04-12T00:05:25.371Z,0.8308
2023-04-12T00:06:26.513Z,0.7769
2023-04-12T00:07:28.022Z,0.8154
2023-04-12T00:08:29.455Z,0.7077
2023-04-12T00:09:30.844Z,0.7000
2023-04-12T00:10:32.297Z,0.7769
2023-04-12T00:11:33.657Z,0.8462
2023-04-12T00:12:35.124Z,0.7538
2023-04-12T00:13:36.665Z,0.7000
2023-04-12T00:14:37.892Z,0.9231
2023-04-12T00:15:39.493Z,0.9385
2023-04-12T00:16:40.879Z,0.9077
2023-04-12T00:17:42.324Z,0.6846
2023-04-12T00:18:43.593Z,0.8000
2023-04-12T00:19:45.185Z,0.7231
2023-04-12T00:20:46.478Z,0.7538
2023-04-12T00:21:47.943Z,0.6000
2023-04-12T00:22:49.377Z,0.7538
2023-04-12T00:23:50.809Z,0.7615
2023-04-12T00:24:52.173Z,0.6692
2023-04-12T00:25:53.602Z,0.6615
2023-04-12T00:26:55.042Z,0.7308
2023-04-12T00:27:57.254Z,0.8077
2023-04-12T00:28:57.930Z,0.8077
2023-04-12T00:29:59.304Z,0.8385
2023-04-12T00:31:00.693Z,0.8692
2023-04-12T00:32:02.074Z,0.7154
2023-04-12T00:33:03.706Z,0.7000
2023-04-12T00:34:04.936Z,0.8154
2023-04-12T00:35:06.329Z,0.7231
2023-04-12T00:36:07.967Z,0.7615
2023-04-12T00:37:09.263Z,0.7231
2023-04-12T00:38:10.886Z,0.6846
2023-04-12T00:39:11.988Z,0.8000
2023-04-12T00:40:13.431Z,0.6462
2023-04-12T00:41:14.847Z,0.7154
2023-04-12T00:42:16.318Z,0.7846
2023-04-12T00:43:17.740Z,0.7231
2023-04-12T00:44:19.129Z,0.7615
2023-04-12T00:45:20.517Z,0.7385
2023-04-12T00:46:21.904Z,0.7538
2023-04-12T00:47:23.439Z,0.7154
2023-04-12T00:48:24.839Z,0.6692
2023-04-12T00:49:26.287Z,0.7538
2023-04-12T00:50:27.677Z,0.8154
2023-04-12T00:51:29.117Z,0.8077
2023-04-12T00:52:30.515Z,0.9154
2023-04-12T00:53:32.000Z,0.7769
2023-04-12T00:54:33.404Z,0.6538
2023-04-12T00:55:34.794Z,0.6769
2023-04-12T00:56:36.261Z,0.6923
2023-04-12T00:57:37.686Z,0.7231
2023-04-12T00:58:39.095Z,0.6923
2023-04-12T00:59:40.424Z,0.7154
2023-04-12T01:00:41.872Z,0.6231
2023-04-12T01:01:43.440Z,0.6462
2023-04-12T01:02:44.896Z,0.7615
2023-04-12T01:03:46.316Z,0.6846
2023-04-12T01:04:47.614Z,0.6538
2023-04-12T01:05:49.046Z,0.7692
2023-04-12T01:06:50.393Z,0.7077
2023-04-12T01:07:51.931Z,0.8154
2023-04-12T01:08:53.345Z,0.7692
2023-04-12T01:09:54.689Z,0.6846
2023-04-12T01:10:56.234Z,0.7231
2023-04-12T01:11:57.512Z,0.8000
2023-04-12T01:12:58.814Z,0.7462
2023-04-12T01:14:00.492Z,0.8923
2023-04-12T01:15:01.773Z,0.6846
2023-04-12T01:16:03.142Z,0.6923
2023-04-12T01:17:04.608Z,0.7538
2023-04-12T01:18:06.185Z,0.8000
2023-04-12T01:19:07.491Z,0.8077
2023-04-12T01:20:08.814Z,0.8615
2023-04-12T01:21:10.164Z,0.9154
2023-04-12T01:22:11.708Z,0.7538
2023-04-12T01:23:13.157Z,0.6385
2023-04-12T01:24:14.541Z,0.7000
2023-04-12T01:25:15.950Z,0.7846
2023-04-12T01:26:17.425Z,0.7615
2023-04-12T01:27:18.797Z,0.6615
2023-04-12T01:28:20.223Z,0.8462
2023-04-12T01:29:21.664Z,0.7692
2023-04-12T01:30:23.108Z,0.7308
2023-04-12T01:31:24.505Z,0.6769
2023-04-12T01:32:25.952Z,0.7000
2023-04-12T01:33:27.341Z,0.6769
2023-04-12T01:34:28.962Z,0.6615
2023-04-12T01:35:30.250Z,0.5769
2023-04-12T01:36:31.634Z,0.6538
2023-04-12T01:37:33.009Z,0.7154
2023-04-12T01:38:34.344Z,0.7077
2023-04-12T01:39:35.942Z,0.6615
2023-04-12T01:40:37.309Z,0.6769
2023-04-12T01:41:38.730Z,0.6692
2023-04-12T01:42:40.186Z,0.6615
2023-04-12T01:43:41.707Z,0.6692
2023-04-12T01:44:43.191Z,0.6846
2023-04-12T01:45:44.578Z,0.7000
2023-04-12T01:46:45.945Z,0.7231
2023-04-12T01:47:47.445Z,0.7077
2023-04-12T01:48:48.806Z,0.7846
2023-04-12T01:49:50.297Z,0.8000
2023-04-12T01:50:51.660Z,0.6538
2023-04-12T01:51:53.056Z,0.7615
2023-04-12T01:52:54.590Z,0.7846
2023-04-12T01:53:56.224Z,0.7615
2023-04-12T01:54:57.339Z,0.8000
2023-04-12T01:55:58.779Z,0.8154
2023-04-12T01:57:00.208Z,0.7846
2023-04-12T01:58:01.614Z,0.7538
2023-04-12T01:59:03.069Z,0.7231
2023-04-12T02:00:04.490Z,0.7615
2023-04-12T02:01:05.973Z,0.8692
2023-04-12T02:02:07.357Z,0.8077
2023-04-12T02:03:08.945Z,0.6846
2023-04-12T02:04:10.204Z,0.7462
2023-04-12T02:05:11.610Z,0.7231
2023-04-12T02:06:13.069Z,0.7538
2023-04-12T02:07:14.500Z,0.7769
2023-04-12T02:08:15.936Z,0.7462
2023-04-12T02:09:17.273Z,0.8846
2023-04-12T02:10:18.673Z,0.8077
2023-04-12T02:11:20.167Z,0.7615
2023-04-12T02:12:21.598Z,0.7231
2023-04-12T02:13:22.967Z,0.7385
2023-04-12T02:14:24.415Z,0.6923
2023-04-12T02:15:25.896Z,0.7769
2023-04-12T02:16:27.265Z,0.8231
2023-04-12T02:17:28.734Z,0.8231
2023-04-12T02:18:30.144Z,0.8385
2023-04-12T02:19:31.491Z,0.8615
2023-04-12T02:20:33.018Z,0.7846
2023-04-12T02:21:34.380Z,0.7538
2023-04-12T02:22:35.758Z,0.6769
2023-04-12T02:23:37.383Z,0.6077
2023-04-12T02:24:38.573Z,0.6769
2023-04-12T02:25:40.117Z,0.7077
2023-04-12T02:26:41.468Z,0.6615
2023-04-12T02:27:42.908Z,0.6923
2023-04-12T02:28:44.874Z,0.7538
2023-04-12T02:29:45.790Z,0.7000
2023-04-12T02:30:48.205Z,0.6692
2023-04-12T02:31:48.666Z,0.6462
2023-04-12T02:32:50.033Z,0.7615
2023-04-12T02:33:51.382Z,0.7231
2023-04-12T02:34:52.788Z,0.7154
2023-04-12T02:35:54.335Z,0.6769
2023-04-12T02:36:55.836Z,0.6231
2023-04-12T02:37:57.202Z,0.6615
2023-04-12T02:38:58.585Z,0.7000
2023-04-12T02:39:59.931Z,0.7385
2023-04-12T02:41:01.393Z,0.7769
2023-04-12T02:42:02.893Z,0.8923
2023-04-12T02:43:04.325Z,0.6692
2023-04-12T02:44:05.637Z,0.8231
2023-04-12T02:45:07.052Z,0.8538
2023-04-12T02:46:08.510Z,0.7615
2023-04-12T02:47:09.961Z,0.8154
2023-04-12T02:48:11.310Z,0.7385
2023-04-12T02:49:12.796Z,0.7000
2023-04-12T02:50:14.965Z,0.7000
2023-04-12T02:51:15.621Z,0.7462
2023-04-12T02:52:17.062Z,0.8308
2023-04-12T02:53:18.343Z,0.8231
2023-04-12T02:54:19.925Z,0.7769
2023-04-12T02:55:21.256Z,0.8077
2023-04-12T02:56:22.685Z,0.7000
2023-04-12T02:57:24.613Z,0.7538
2023-04-12T02:58:25.504Z,0.7692
2023-04-12T02:59:26.940Z,0.7077
2023-04-12T03:00:28.349Z,0.6769
2023-04-12T03:01:29.873Z,0.7231
2023-04-12T03:02:31.443Z,0.7615
2023-04-12T03:03:32.797Z,0.7385
2023-04-12T03:04:34.188Z,0.6846
2023-04-12T03:05:35.461Z,0.7462
2023-04-12T03:06:36.907Z,0.7077
2023-04-12T03:07:39.967Z,0.7769
2023-04-12T03:08:39.711Z,0.6846
2023-04-12T03:09:41.277Z,0.7538
2023-04-12T03:10:42.583Z,0.7308
2023-04-12T03:11:43.974Z,0.7538
2023-04-12T03:12:45.485Z,0.7462
2023-04-12T03:13:46.891Z,0.7846
2023-04-12T03:14:48.382Z,0.7692
2023-04-12T03:15:50.525Z,0.7538
2023-04-12T03:16:51.089Z,0.7462
2023-04-12T03:17:52.723Z,0.8000
2023-04-12T03:18:53.968Z,0.7846
2023-04-12T03:19:55.385Z,0.7769
2023-04-12T03:20:56.805Z,0.7538
2023-04-12T03:21:58.147Z,0.8231
2023-04-12T03:22:59.650Z,0.8000
2023-04-12T03:24:01.117Z,0.8462
2023-04-12T03:25:02.450Z,0.8077
2023-04-12T03:26:03.913Z,0.9154
2023-04-12T03:27:05.243Z,0.7846
2023-04-12T03:28:06.765Z,0.7769
2023-04-12T03:29:08.906Z,0.7462
2023-04-12T03:30:09.550Z,0.7538
2023-04-12T03:31:11.014Z,0.7538
2023-04-12T03:32:12.409Z,0.8077
2023-04-12T03:33:13.990Z,0.8000
2023-04-12T03:34:15.168Z,0.8308
2023-04-12T03:35:16.590Z,0.8308
2023-04-12T03:36:18.535Z,0.7923
2023-04-12T03:37:19.706Z,0.7462
2023-04-12T03:38:21.588Z,0.8769
2023-04-12T03:39:22.588Z,0.8231
2023-04-12T03:40:23.898Z,0.9692
2023-04-12T03:41:25.307Z,0.8615
2023-04-12T03:42:32.899Z,0.8000
2023-04-12T03:43:28.211Z,0.8231
2023-04-12T03:44:29.537Z,0.9154
2023-04-12T03:45:31.042Z,0.8308
2023-04-12T03:46:32.673Z,0.8692
2023-04-12T03:47:33.940Z,0.8846
2023-04-12T03:48:35.385Z,0.9154
2023-04-12T03:49:36.636Z,0.8692
2023-04-12T03:50:38.119Z,0.8538
2023-04-12T03:51:39.539Z,0.8154
2023-04-12T03:52:40.945Z,0.8000
2023-04-12T03:53:43.434Z,0.7846
2023-04-12T03:54:43.841Z,0.8154
2023-04-12T03:55:45.261Z,0.8000
2023-04-12T03:56:46.570Z,0.7923
2023-04-12T03:57:48.284Z,0.8385
2023-04-12T03:58:49.577Z,0.7923
2023-04-12T03:59:50.947Z,0.7385
2023-04-12T04:00:52.386Z,0.7769
2023-04-12T04:01:53.798Z,0.7692
2023-04-12T04:02:55.247Z,0.7538
2023-04-12T04:03:57.146Z,0.7538
2023-04-12T04:04:58.144Z,0.6846
2023-04-12T04:05:59.485Z,0.7231
2023-04-12T04:07:00.865Z,0.8077
2023-04-12T04:08:02.478Z,0.8231
2023-04-12T04:09:03.823Z,0.7308
2023-04-12T04:10:05.136Z,0.7308
2023-04-12T04:11:08.497Z,0.7154
2023-04-12T04:12:08.010Z,0.8000
2023-04-12T04:13:09.430Z,0.9000
2023-04-12T04:14:10.914Z,0.7615
2023-04-12T04:15:12.280Z,0.7077
2023-04-12T04:16:13.776Z,0.7538
2023-04-12T04:17:16.073Z,0.8231
2023-04-12T04:18:16.571Z,0.8077
2023-04-12T04:19:18.048Z,0.8000
2023-04-12T04:20:19.433Z,0.7000
2023-04-12T04:21:20.710Z,0.7077
2023-04-12T04:22:22.321Z,0.7462
2023-04-12T04:23:23.705Z,0.7692
2023-04-12T04:24:25.208Z,0.7077
2023-04-12T04:25:26.602Z,0.7923
2023-04-12T04:26:27.987Z,0.7692
2023-04-12T04:27:29.452Z,0.7615
2023-04-12T04:28:30.836Z,0.7615
2023-04-12T04:29:32.328Z,0.7308
2023-04-12T04:30:33.997Z,0.7846
2023-04-12T04:31:35.071Z,0.7231
2023-04-12T04:32:36.536Z,0.7846
2023-04-12T04:33:38.028Z,0.7538
2023-04-12T04:34:39.350Z,0.8308
2023-04-12T04:35:40.768Z,0.7769
2023-04-12T04:36:42.249Z,0.7615
2023-04-12T04:37:43.536Z,0.8538
2023-04-12T04:38:45.017Z,0.7846
2023-04-12T04:39:46.500Z,0.7692
2023-04-12T04:40:48.000Z,0.8538
2023-04-12T04:41:49.344Z,0.8077
2023-04-12T04:42:50.734Z,0.7692
2023-04-12T04:43:52.147Z,0.9615
2023-04-12T04:44:53.641Z,0.9462
2023-04-12T04:45:55.090Z,0.7154
2023-04-12T04:46:56.471Z,0.9308
2023-04-12T04:47:57.949Z,0.8846
2023-04-12T04:48:59.354Z,0.8615
2023-04-12T04:50:01.048Z,0.8846
2023-04-12T04:51:02.164Z,0.8462
2023-04-12T04:52:03.530Z,0.8538
2023-04-12T04:53:05.058Z,0.8308
2023-04-12T04:54:06.424Z,0.8385
2023-04-12T04:55:09.845Z,0.8000
2023-04-12T04:56:09.276Z,0.7692
2023-04-12T04:57:10.668Z,0.8077
2023-04-12T04:58:12.133Z,0.7615
2023-04-12T04:59:13.747Z,0.7615
2023-04-12T05:00:15.017Z,0.8154
2023-04-12T05:01:16.577Z,0.8154
2023-04-12T05:02:17.846Z,0.7923
2023-04-12T05:03:19.378Z,0.8000
2023-04-12T05:04:20.634Z,0.8538
2023-04-12T05:05:22.143Z,0.8846
2023-04-12T05:06:23.504Z,0.8769
2023-04-12T05:07:25.021Z,0.7846
2023-04-12T05:08:26.372Z,0.8538
2023-04-12T05:09:27.758Z,0.9154
2023-04-12T05:10:29.593Z,0.8923
2023-04-12T05:11:30.535Z,0.7769
2023-04-12T05:12:32.024Z,0.8077
2023-04-12T05:13:33.656Z,0.7538
2023-04-12T05:14:45.857Z,0.7923
2023-04-12T05:15:36.329Z,0.8462
2023-04-12T05:16:38.117Z,0.8231
2023-04-12T05:17:39.229Z,0.7769
2023-04-12T05:18:40.587Z,0.7846
2023-04-12T05:19:42.025Z,0.8769
2023-04-12T05:20:43.452Z,0.8769
2023-04-12T05:21:44.950Z,0.8769
2023-04-12T05:22:46.290Z,0.8462
2023-04-12T05:23:47.689Z,0.7846
2023-04-12T05:24:49.271Z,0.7923
2023-04-12T05:25:50.567Z,0.7846
2023-04-12T05:26:52.143Z,0.8538
2023-04-12T05:27:53.375Z,0.8462
2023-04-12T05:28:54.904Z,0.7923
2023-04-12T05:29:56.235Z,0.8154
2023-04-12T05:30:57.787Z,0.8923
2023-04-12T05:31:59.195Z,0.8154
2023-04-12T05:33:00.761Z,0.9077
2023-04-12T05:34:02.013Z,0.9385
2023-04-12T05:35:03.439Z,0.9385
2023-04-12T05:36:04.903Z,0.9692
2023-04-12T05:37:06.305Z,1.0462
2023-04-12T05:38:07.742Z,0.9000
2023-04-12T05:39:09.103Z,0.8538
2023-04-12T05:40:10.576Z,1.0462
2023-04-12T05:41:12.086Z,0.8923
2023-04-12T05:42:13.616Z,0.9385
2023-04-12T05:43:14.763Z,0.9154
2023-04-12T05:44:16.249Z,0.8769
2023-04-12T05:45:17.908Z,0.7923
2023-04-12T05:46:19.256Z,0.9846
2023-04-12T05:47:20.610Z,1.0692
2023-04-12T05:48:22.081Z,0.8923
2023-04-12T05:49:23.453Z,0.8538
2023-04-12T05:50:24.818Z,0.9000
2023-04-12T05:51:39.993Z,0.7615
2023-04-12T05:52:27.831Z,0.7923
2023-04-12T05:53:29.206Z,0.8231
2023-04-12T05:54:30.659Z,0.7308
2023-04-12T05:55:32.156Z,0.7769
2023-04-12T05:56:33.753Z,0.8231
2023-04-12T05:57:34.952Z,0.7846
2023-04-12T05:58:36.310Z,0.8308
2023-04-12T05:59:37.853Z,0.8077
2023-04-12T06:00:39.229Z,0.9385
2023-04-12T06:01:40.762Z,0.9692
2023-04-12T06:02:42.310Z,1.0000
2023-04-12T06:03:43.686Z,1.0154
2023-04-12T06:04:50.616Z,1.0846
2023-04-12T06:05:46.438Z,1.0308
2023-04-12T06:06:47.883Z,0.9846
2023-04-12T06:07:49.362Z,0.8923
2023-04-12T06:08:50.652Z,0.9231
2023-04-12T06:09:52.101Z,0.9923
2023-04-12T06:10:53.488Z,0.8154
2023-04-12T06:11:54.993Z,0.8154
2023-04-12T06:12:56.344Z,0.8538
2023-04-12T06:13:57.768Z,0.8000
2023-04-12T06:14:59.246Z,0.8077
2023-04-12T06:16:00.583Z,1.0000
2023-04-12T06:17:02.271Z,0.9385
2023-04-12T06:18:03.577Z,0.9308
2023-04-12T06:19:04.912Z,0.9769
2023-04-12T06:20:06.418Z,0.9385
2023-04-12T06:21:07.850Z,0.8615
2023-04-12T06:22:09.370Z,0.7846
2023-04-12T06:23:10.775Z,0.7692
2023-04-12T06:24:12.108Z,0.7462
2023-04-12T06:25:13.547Z,0.7308
2023-04-12T06:26:16.636Z,0.7154
2023-04-12T06:27:16.418Z,0.8000
2023-04-12T06:28:17.804Z,0.7615
2023-04-12T06:29:19.216Z,0.7154
2023-04-12T06:30:20.603Z,0.7615
2023-04-12T06:31:22.037Z,0.7769
2023-04-12T06:32:23.519Z,0.8231
2023-04-12T06:33:24.893Z,0.7385
2023-04-12T06:34:26.323Z,0.8077
2023-04-12T06:35:27.739Z,0.8231
2023-04-12T06:36:29.214Z,0.8538
2023-04-12T06:37:30.653Z,0.8000
2023-04-12T06:38:31.996Z,0.7538
2023-04-12T06:39:33.441Z,0.7462
2023-04-12T06:40:34.867Z,0.8538
2023-04-12T06:41:36.276Z,0.7846
2023-04-12T06:42:37.878Z,0.8231
2023-04-12T06:43:39.568Z,0.8308
2023-04-12T06:44:40.584Z,0.8769
2023-04-12T06:45:42.051Z,0.9000
2023-04-12T06:46:43.527Z,0.9308
2023-04-12T06:47:44.840Z,0.9077
2023-04-12T06:48:46.269Z,0.9231
2023-04-12T06:49:47.698Z,0.8385
2023-04-12T06:50:49.136Z,0.8462
2023-04-12T06:51:50.511Z,0.9846
2023-04-12T06:52:52.111Z,0.8615
2023-04-12T06:53:53.615Z,0.8846
2023-04-12T06:54:54.924Z,0.9077
2023-04-12T06:55:56.313Z,0.7769
2023-04-12T06:56:57.793Z,0.8462
2023-04-12T06:57:59.233Z,0.8385
2023-04-12T06:59:00.802Z,0.8538
2023-04-12T07:00:02.001Z,0.7538
2023-04-12T07:01:03.452Z,0.8462
2023-04-12T07:02:04.990Z,0.8846
2023-04-12T07:03:06.367Z,0.8385
2023-04-12T07:04:07.767Z,0.7692
2023-04-12T07:05:09.268Z,0.8923
2023-04-12T07:06:23.697Z,0.9769
2023-04-12T07:07:12.017Z,0.8769
2023-04-12T07:08:13.517Z,0.8615
2023-04-12T07:09:14.885Z,0.8385
2023-04-12T07:10:16.297Z,1.1000
2023-04-12T07:11:21.618Z,1.0154
2023-04-12T07:12:19.280Z,0.9615
2023-04-12T07:13:20.648Z,1.0154
2023-04-12T07:14:21.990Z,0.9923
2023-04-12T07:15:23.435Z,0.8615
2023-04-12T07:16:24.818Z,0.8308
2023-04-12T07:17:26.296Z,0.9538
2023-04-12T07:18:27.704Z,0.8615
2023-04-12T07:19:29.193Z,0.8000
2023-04-12T07:20:30.576Z,0.8308
2023-04-12T07:21:32.288Z,0.9154
2023-04-12T07:22:33.421Z,0.8308
2023-04-12T07:23:34.860Z,0.8462
2023-04-12T07:24:36.255Z,0.9769
2023-04-12T07:25:37.785Z,0.9615
2023-04-12T07:26:39.141Z,1.0000
2023-04-12T07:27:40.531Z,0.9615
2023-04-12T07:28:42.414Z,0.8923
2023-04-12T07:29:44.133Z,0.9385
2023-04-12T07:30:44.794Z,0.9692
2023-04-12T07:31:47.072Z,0.8538
2023-04-12T07:32:47.675Z,0.7615
2023-04-12T07:33:49.237Z,0.7692
2023-04-12T07:34:50.490Z,0.9000
2023-04-12T07:35:51.985Z,0.8231
2023-04-12T07:36:53.339Z,0.8077
2023-04-12T07:37:54.830Z,0.8154
2023-04-12T07:38:56.581Z,0.9154
2023-04-12T07:39:57.670Z,0.8692
2023-04-12T07:40:59.131Z,1.0769
2023-04-12T07:42:00.470Z,0.8846
2023-04-12T07:43:01.969Z,0.8308
2023-04-12T07:44:03.594Z,0.7923
2023-04-12T07:45:04.783Z,0.8385
2023-04-12T07:46:06.183Z,0.9846
2023-04-12T07:47:07.589Z,0.8308
2023-04-12T07:48:09.018Z,0.7923
2023-04-12T07:49:10.443Z,0.7769
2023-04-12T07:50:13.258Z,0.7846
2023-04-12T07:51:13.316Z,0.8462
2023-04-12T07:52:14.754Z,0.9077
2023-04-12T07:53:16.152Z,0.9462
2023-04-12T07:54:17.604Z,0.8692
2023-04-12T07:55:19.148Z,0.9538
2023-04-12T07:56:20.478Z,0.9538
2023-04-12T07:57:21.830Z,0.8462
2023-04-12T07:58:23.283Z,1.0000
2023-04-12T07:59:24.803Z,1.1000
2023-04-12T08:00:26.198Z,1.0308
2023-04-12T08:01:27.597Z,1.0000
2023-04-12T08:02:29.472Z,1.0385
2023-04-12T08:03:30.511Z,1.0615
2023-04-12T08:04:31.871Z,1.1538
2023-04-12T08:05:33.354Z,0.9923
2023-04-12T08:06:35.002Z,0.9077
2023-04-12T08:07:36.096Z,0.9692
2023-04-12T08:08:37.605Z,1.0154
2023-04-12T08:09:38.888Z,0.8692
2023-04-12T08:10:40.492Z,0.8462
2023-04-12T08:11:41.746Z,0.9308
2023-04-12T08:12:43.198Z,1.0231
2023-04-12T08:13:44.578Z,0.9538
2023-04-12T08:14:46.026Z,0.8615
2023-04-12T08:15:47.812Z,1.0154
2023-04-12T08:16:49.009Z,1.0077
2023-04-12T08:17:50.345Z,1.0462
2023-04-12T08:18:51.725Z,0.9615
2023-04-12T08:19:53.161Z,0.9923
2023-04-12T08:20:54.675Z,0.9385
2023-04-12T08:21:56.105Z,1.0385
2023-04-12T08:22:57.514Z,1.0692
2023-04-12T08:23:59.111Z,1.0538
2023-04-12T08:25:00.377Z,1.0231
2023-04-12T08:26:01.745Z,0.9000
2023-04-12T08:27:03.069Z,0.9077
2023-04-12T08:28:04.574Z,0.9000
2023-04-12T08:29:06.045Z,0.9154
2023-04-12T08:30:07.423Z,1.2154
2023-04-12T08:31:08.945Z,3.1308
2023-04-12T08:32:10.310Z,1.2231
2023-04-12T08:33:11.777Z,1.4385
2023-04-12T08:34:13.151Z,1.4000
2023-04-12T08:35:14.646Z,1.2231
2023-04-12T08:36:16.040Z,1.2538
2023-04-12T08:37:17.402Z,1.0231
2023-04-12T08:38:18.921Z,1.0846
2023-04-12T08:39:20.348Z,1.2615
2023-04-12T08:40:21.691Z,1.2385
2023-04-12T08:41:23.291Z,0.8385
2023-04-12T08:42:24.590Z,0.8923
2023-04-12T08:43:26.014Z,0.9769
2023-04-12T08:44:27.433Z,0.8077
2023-04-12T08:45:28.930Z,0.8385
2023-04-12T08:46:30.410Z,0.8154
2023-04-12T08:47:31.705Z,1.1077
2023-04-12T08:48:33.158Z,2.4923
2023-04-12T08:49:34.431Z,2.5692
2023-04-12T08:50:36.044Z,1.4923
2023-04-12T08:51:37.449Z,1.4385
2023-04-12T08:52:38.840Z,1.5462
2023-04-12T08:53:40.336Z,1.9000
2023-04-12T08:54:41.782Z,1.2538
2023-04-12T08:55:43.126Z,0.9769
2023-04-12T08:56:44.620Z,0.9615
2023-04-12T08:57:45.946Z,0.9231
2023-04-12T08:58:47.423Z,0.9385
2023-04-12T08:59:48.783Z,0.7077
2023-04-12T09:00:50.283Z,0.8538
2023-04-12T09:01:51.789Z,0.8231
2023-04-12T09:02:53.313Z,0.7846
2023-04-12T09:03:54.487Z,0.8231
2023-04-12T09:04:56.097Z,0.7154
2023-04-12T09:05:57.426Z,0.7462
2023-04-12T09:06:58.788Z,0.7462
2023-04-12T09:08:00.193Z,1.0462
2023-04-12T09:09:01.660Z,1.4077
2023-04-12T09:10:03.095Z,1.3000
2023-04-12T09:11:04.475Z,1.1538
2023-04-12T09:12:05.980Z,1.0769
2023-04-12T09:13:07.655Z,1.0923
2023-04-12T09:14:08.735Z,1.0538
2023-04-12T09:15:10.168Z,1.1308
2023-04-12T09:16:12.196Z,1.0385
2023-04-12T09:17:13.032Z,0.8385
2023-04-12T09:18:16.723Z,0.8462
2023-04-12T09:19:15.928Z,0.8231
2023-04-12T09:20:18.215Z,0.8846
2023-04-12T09:21:18.753Z,0.9692
2023-04-12T09:22:20.161Z,0.9846
2023-04-12T09:23:21.570Z,0.9462
2023-04-12T09:24:22.968Z,1.2385
2023-04-12T09:25:24.480Z,0.8000
2023-04-12T09:26:25.768Z,0.8923
2023-04-12T09:27:27.311Z,0.8769
2023-04-12T09:28:28.685Z,0.9308
2023-04-12T09:29:30.152Z,0.9154
2023-04-12T09:30:31.462Z,1.1077
2023-04-12T09:31:33.000Z,0.9462
2023-04-12T09:32:34.337Z,0.9923
2023-04-12T09:33:36.572Z,1.4538
2023-04-12T09:34:37.211Z,1.3538
2023-04-12T09:35:38.684Z,0.9154
2023-04-12T09:36:40.063Z,1.1231
2023-04-12T09:37:41.429Z,1.0769
2023-04-12T09:38:43.499Z,1.0231
2023-04-12T09:39:44.286Z,1.1000
2023-04-12T09:40:45.745Z,1.7769
2023-04-12T09:41:47.154Z,1.4154
2023-04-12T09:42:48.560Z,1.0231
2023-04-12T09:43:50.027Z,0.7923
2023-04-12T09:44:51.384Z,0.8308
2023-04-12T09:45:52.880Z,1.1077
2023-04-12T09:46:54.398Z,0.9385
2023-04-12T09:47:55.857Z,1.2846
2023-04-12T09:48:57.308Z,1.6538
2023-04-12T09:49:58.526Z,1.6769
2023-04-12T09:51:00.298Z,2.1154
2023-04-12T09:52:01.467Z,1.7615
2023-04-12T09:53:02.881Z,1.6154
2023-04-12T09:54:04.514Z,1.7154
2023-04-12T09:55:05.771Z,1.5923
2023-04-12T09:56:07.201Z,1.5000
2023-04-12T09:57:08.641Z,1.9538
2023-04-12T09:58:10.037Z,1.4923
2023-04-12T09:59:11.507Z,1.1231
2023-04-12T10:00:12.865Z,0.8385
2023-04-12T10:01:15.862Z,0.9000
2023-04-12T10:02:15.807Z,0.9692
2023-04-12T10:03:17.222Z,1.0000
2023-04-12T10:04:18.820Z,1.0923
2023-04-12T10:05:20.151Z,1.1692
2023-04-12T10:06:21.894Z,0.9462
2023-04-12T10:07:22.847Z,0.9385
2023-04-12T10:08:24.406Z,0.8538
2023-04-12T10:09:25.762Z,0.9846
2023-04-12T10:10:27.113Z,1.0538
2023-04-12T10:11:28.530Z,1.0462
2023-04-12T10:12:29.826Z,1.0923
2023-04-12T10:13:31.348Z,1.0538
2023-04-12T10:14:32.825Z,1.1692
2023-04-12T10:15:34.275Z,1.1385
2023-04-12T10:16:35.691Z,1.1692
2023-04-12T10:17:37.100Z,1.0846
2023-04-12T10:18:38.494Z,1.0538
2023-04-12T10:19:39.974Z,1.1077
2023-04-12T10:20:41.338Z,0.9769
2023-04-12T10:21:42.776Z,1.0154
2023-04-12T10:22:44.110Z,1.0846
2023-04-12T10:23:45.708Z,1.1231
2023-04-12T10:24:47.147Z,1.0000
2023-04-12T10:25:48.425Z,1.0462
2023-04-12T10:26:49.883Z,0.9846
2023-04-12T10:27:51.260Z,1.0462
2023-04-12T10:28:52.761Z,0.9154
2023-04-12T10:29:54.130Z,0.9846
2023-04-12T10:30:55.547Z,1.0077
2023-04-12T10:31:56.953Z,1.0308
2023-04-12T10:32:58.501Z,1.0538
2023-04-12T10:33:59.749Z,0.9462
2023-04-12T10:35:01.337Z,1.0462
2023-04-12T10:36:02.658Z,1.0615
2023-04-12T10:37:04.106Z,1.1154
2023-04-12T10:38:05.501Z,1.0923
2023-04-12T10:39:07.675Z,1.1077
2023-04-12T10:40:08.369Z,0.9615
2023-04-12T10:41:09.791Z,0.9385
2023-04-12T10:42:11.174Z,0.8923
2023-04-12T10:43:12.579Z,0.9385
2023-04-12T10:44:14.012Z,0.9846
2023-04-12T10:45:15.513Z,0.9000
2023-04-12T10:46:16.881Z,0.8615
2023-04-12T10:47:18.343Z,0.8692
2023-04-12T10:48:19.718Z,0.8462
2023-04-12T10:49:21.209Z,0.8385
2023-04-12T10:50:23.059Z,0.9000
2023-04-12T10:51:23.921Z,0.9538
2023-04-12T10:52:25.361Z,0.9000
2023-04-12T10:53:26.767Z,0.9385
2023-04-12T10:54:28.335Z,0.8923
2023-04-12T10:55:29.641Z,0.8692
2023-04-12T10:56:32.268Z,0.8077
2023-04-12T10:57:32.431Z,0.9077
2023-04-12T10:58:33.973Z,1.0846
2023-04-12T10:59:47.251Z,1.0000
2023-04-12T11:00:36.898Z,1.0615
2023-04-12T11:01:39.137Z,0.8615
2023-04-12T11:02:39.664Z,0.9846
2023-04-12T11:03:41.086Z,0.9923
2023-04-12T11:04:42.483Z,1.0077
2023-04-12T11:05:44.587Z,0.9308
2023-04-12T11:06:45.319Z,1.0308
2023-04-12T11:07:46.621Z,1.0231
2023-04-12T11:08:48.253Z,1.0154
2023-04-12T11:09:49.606Z,0.9000
2023-04-12T11:10:51.151Z,1.0154
2023-04-12T11:11:52.573Z,1.0231
2023-04-12T11:12:53.779Z,1.0462
2023-04-12T11:13:55.292Z,0.9077
2023-04-12T11:14:56.682Z,0.9077
2023-04-12T11:15:58.189Z,0.9615
2023-04-12T11:16:59.616Z,1.1000
2023-04-12T11:18:00.986Z,1.1231
2023-04-12T11:19:02.427Z,1.0308
2023-04-12T11:20:03.904Z,1.1231
2023-04-12T11:21:05.314Z,1.0846
2023-04-12T11:22:06.694Z,1.0846
2023-04-12T11:23:09.947Z,0.9923
2023-04-12T11:24:09.511Z,1.0538
2023-04-12T11:25:10.916Z,1.3846
2023-04-12T11:26:12.486Z,1.2615
2023-04-12T11:27:13.679Z,1.1231
2023-04-12T11:28:28.088Z,1.2154
2023-04-12T11:29:16.669Z,1.0923
2023-04-12T11:30:17.996Z,1.1769
2023-04-12T11:31:19.574Z,0.9462
2023-04-12T11:32:20.968Z,1.1000
2023-04-12T11:33:22.354Z,1.0462
2023-04-12T11:34:23.814Z,1.6692
2023-04-12T11:35:25.268Z,1.0692
2023-04-12T11:36:26.693Z,1.3923
2023-04-12T11:37:28.134Z,1.4692
2023-04-12T11:38:29.552Z,1.6538
2023-04-12T11:39:32.012Z,1.3462
2023-04-12T11:40:32.479Z,1.3077
2023-04-12T11:41:33.861Z,1.3385
2023-04-12T11:42:35.234Z,1.1308
2023-04-12T11:43:36.660Z,1.3462
2023-04-12T11:44:52.514Z,1.1615
2023-04-12T11:45:39.546Z,1.7769
2023-04-12T11:46:40.990Z,1.4385
2023-04-12T11:47:42.349Z,4.3769
2023-04-12T11:48:43.752Z,2.9385
2023-04-12T11:49:45.077Z,1.5615
2023-04-12T11:50:51.790Z,1.3615
2023-04-12T11:51:49.711Z,1.3846
2023-04-12T11:52:49.561Z,1.2385
2023-04-12T11:53:50.805Z,1.5462
2023-04-12T11:54:52.265Z,3.1538
2023-04-12T11:55:53.756Z,1.5846
2023-04-12T11:56:55.239Z,1.7538
2023-04-12T11:57:56.635Z,2.6385
2023-04-12T11:58:57.914Z,1.9846
2023-04-12T11:59:59.542Z,1.2615
2023-04-12T12:01:00.937Z,1.9923
2023-04-12T12:02:08.293Z,1.8231
2023-04-12T12:03:07.312Z,1.4692
2023-04-12T12:04:05.534Z,1.2154
2023-04-12T12:05:06.918Z,1.3615
2023-04-12T12:06:08.469Z,12.7385
2023-04-12T12:07:09.668Z,10.2538
2023-04-12T12:08:10.757Z,5.9154
2023-04-12T12:09:12.171Z,3.0769
2023-04-12T12:10:21.087Z,2.5769
2023-04-12T12:11:15.039Z,1.7077
2023-04-12T12:12:16.639Z,1.8923
2023-04-12T12:13:18.055Z,1.6769
2023-04-12T12:14:19.466Z,2.0308
2023-04-12T12:15:20.904Z,1.7077
2023-04-12T12:16:22.444Z,1.1385
2023-04-12T12:17:23.778Z,0.8538
2023-04-12T12:18:25.009Z,0.9000
2023-04-12T12:19:26.499Z,0.9154
2023-04-12T12:20:28.361Z,0.9077
2023-04-12T12:21:29.379Z,0.8308
2023-04-12T12:22:30.827Z,0.8385
2023-04-12T12:23:32.187Z,0.8923
2023-04-12T12:24:34.904Z,0.8000
2023-04-12T12:25:35.056Z,0.8769
2023-04-12T12:26:36.504Z,0.7923
2023-04-12T12:27:38.186Z,0.7692
2023-04-12T12:28:39.328Z,0.7692
2023-04-12T12:29:40.770Z,0.8769
2023-04-12T12:30:42.164Z,0.9154
2023-04-12T12:31:43.718Z,0.9077
2023-04-12T12:32:45.186Z,0.8846
2023-04-12T12:33:47.286Z,0.9231
2023-04-12T12:34:47.946Z,0.9308
2023-04-12T12:35:49.328Z,0.8615
2023-04-12T12:36:50.743Z,0.8462
2023-04-12T12:37:52.230Z,0.9000
2023-04-12T12:38:53.687Z,0.8385
2023-04-12T12:39:55.055Z,0.9923
2023-04-12T12:40:56.502Z,0.9000
2023-04-12T12:41:57.964Z,0.8615
2023-04-12T12:42:59.392Z,0.8846
2023-04-12T12:44:00.760Z,0.8308
2023-04-12T12:45:03.333Z,0.8154
2023-04-12T12:46:03.621Z,0.9154